createdAt,value
2023-03-04T00:02:00.770Z,100.00
2023-03-04T00:04:29.183Z,100.00
2023-03-04T00:06:57.424Z,100.00
2023-03-04T00:09:25.767Z,100.00
2023-03-04T00:11:54.119Z,100.00
2023-03-04T00:14:23.050Z,100.00
2023-03-04T00:16:51.264Z,100.00
2023-03-04T00:19:20.987Z,100.00
2023-03-04T00:21:49.284Z,100.00
2023-03-04T00:24:17.575Z,100.00
2023-03-04T00:26:46.654Z,100.00
2023-03-04T00:29:14.955Z,100.00
2023-03-04T00:31:43.244Z,100.00
2023-03-04T00:34:11.695Z,100.00
2023-03-04T00:36:41.345Z,100.00
2023-03-04T00:39:09.744Z,100.00
2023-03-04T00:41:38.145Z,100.00
2023-03-04T00:44:06.721Z,100.00
2023-03-04T00:46:35.075Z,100.00
2023-03-04T00:49:03.453Z,100.00
2023-03-04T00:51:31.737Z,100.00
2023-03-04T00:54:01.480Z,100.00
2023-03-04T00:56:29.881Z,100.00
2023-03-04T00:58:58.279Z,100.00
2023-03-04T01:01:26.569Z,100.00
2023-03-04T01:03:54.927Z,100.00
2023-03-04T01:06:23.135Z,100.00
2023-03-04T01:08:51.420Z,100.00
2023-03-04T01:11:21.189Z,100.00
2023-03-04T01:13:49.790Z,100.00
2023-03-04T01:16:18.046Z,100.00
2023-03-04T01:18:47.670Z,100.00
2023-03-04T01:21:15.995Z,100.00
2023-03-04T01:23:44.297Z,100.00
2023-03-04T01:26:12.651Z,100.00
2023-03-04T01:28:42.354Z,100.00
2023-03-04T01:31:10.828Z,100.00
2023-03-04T01:33:39.157Z,100.00
2023-03-04T01:36:08.088Z,100.00
2023-03-04T01:38:36.450Z,100.00
2023-03-04T01:41:04.795Z,100.00
2023-03-04T01:43:33.406Z,100.00
2023-03-04T01:46:03.750Z,100.00
2023-03-04T01:48:36.741Z,100.00
2023-03-04T01:51:05.954Z,100.00
2023-03-04T01:53:34.811Z,100.00
2023-03-04T01:56:05.902Z,100.00
2023-03-04T01:58:34.504Z,100.00
2023-03-04T02:01:04.236Z,100.00
2023-03-04T02:03:32.504Z,100.00
2023-03-04T02:06:00.990Z,100.00
2023-03-04T02:08:29.379Z,100.00
2023-03-04T02:10:57.927Z,100.00
2023-03-04T02:13:26.723Z,100.00
2023-03-04T02:15:55.034Z,100.00
2023-03-04T02:18:26.120Z,100.00
2023-03-04T02:21:04.755Z,100.00
2023-03-04T02:23:40.787Z,100.00
2023-03-04T02:26:16.912Z,100.00
2023-03-04T02:28:45.794Z,100.00
2023-03-04T02:31:24.947Z,100.00
2023-03-04T02:33:55.359Z,100.00
2023-03-04T02:36:24.794Z,100.00
2023-03-04T02:38:54.431Z,100.00
2023-03-04T02:41:26.617Z,100.00
2023-03-04T02:43:56.713Z,100.00
2023-03-04T02:46:25.136Z,100.00
2023-03-04T02:48:54.069Z,100.00
2023-03-04T02:51:22.506Z,100.00
2023-03-04T02:53:50.993Z,100.00
2023-03-04T02:56:19.229Z,100.00
2023-03-04T02:58:48.951Z,100.00
2023-03-04T03:01:17.264Z,100.00
2023-03-04T03:03:45.488Z,100.00
2023-03-04T03:06:13.852Z,100.00
2023-03-04T03:08:42.270Z,100.00
2023-03-04T03:11:10.689Z,100.00
2023-03-04T03:13:38.988Z,100.00
2023-03-04T03:16:08.962Z,100.00
2023-03-04T03:18:37.200Z,100.00
2023-03-04T03:21:05.780Z,100.00
2023-03-04T03:23:34.121Z,100.00
2023-03-04T03:26:02.636Z,100.00
2023-03-04T03:28:31.016Z,100.00
2023-03-04T03:31:00.277Z,100.00
2023-03-04T03:33:30.147Z,100.00
2023-03-04T03:35:58.543Z,100.00
2023-03-04T03:38:26.924Z,100.00
2023-03-04T03:40:55.296Z,100.00
2023-03-04T03:43:23.608Z,100.00
2023-03-04T03:45:52.212Z,100.00
2023-03-04T03:48:20.577Z,100.00
2023-03-04T03:50:50.251Z,100.00
2023-03-04T03:53:18.601Z,100.00
2023-03-04T03:55:46.893Z,100.00
2023-03-04T03:58:15.266Z,100.00
2023-03-04T04:00:43.600Z,100.00
2023-03-04T04:03:15.341Z,100.00
2023-03-04T04:05:43.683Z,100.00
2023-03-04T04:08:14.830Z,100.00
2023-03-04T04:10:43.300Z,100.00
2023-03-04T04:13:12.152Z,100.00
2023-03-04T04:15:40.594Z,100.00
2023-03-04T04:18:09.679Z,100.00
2023-03-04T04:20:38.193Z,100.00
2023-03-04T04:23:06.477Z,100.00
2023-03-04T04:25:53.341Z,100.00
2023-03-04T04:28:21.601Z,100.00
2023-03-04T04:30:50.041Z,100.00
2023-03-04T04:33:18.429Z,100.00
2023-03-04T04:35:46.694Z,100.00
2023-03-04T04:38:14.958Z,100.00
2023-03-04T04:40:44.813Z,100.00
2023-03-04T04:43:13.074Z,100.00
2023-03-04T04:45:41.395Z,100.00
2023-03-04T04:48:09.762Z,100.00
2023-03-04T04:50:38.094Z,100.00
2023-03-04T04:53:06.380Z,100.00
2023-03-04T04:55:36.061Z,100.00
2023-03-04T04:58:07.175Z,100.00
2023-03-04T05:00:35.604Z,100.00
2023-03-04T05:03:04.032Z,100.00
2023-03-04T05:05:32.358Z,100.00
2023-03-04T05:08:00.625Z,100.00
2023-03-04T05:10:29.140Z,100.00
2023-03-04T05:12:57.533Z,100.00
2023-03-04T05:15:27.193Z,100.00
2023-03-04T05:17:55.546Z,100.00
2023-03-04T05:20:25.864Z,100.00
2023-03-04T05:22:54.271Z,100.00
2023-03-04T05:25:22.654Z,100.00
2023-03-04T05:27:51.031Z,100.00
2023-03-04T05:30:19.672Z,100.00
2023-03-04T05:32:50.563Z,100.00
2023-03-04T05:35:18.988Z,100.00
2023-03-04T05:37:47.410Z,100.00
2023-03-04T05:40:15.836Z,100.00
2023-03-04T05:42:44.059Z,100.00
2023-03-04T05:45:13.157Z,100.00
2023-03-04T05:47:41.479Z,100.00
2023-03-04T05:50:12.720Z,100.00
2023-03-04T05:52:41.143Z,100.00
2023-03-04T05:55:10.590Z,100.00
2023-03-04T05:57:38.964Z,100.00
2023-03-04T06:00:09.568Z,100.00
2023-03-04T06:02:38.266Z,100.00
2023-03-04T06:05:07.586Z,100.00
2023-03-04T06:07:37.949Z,100.00
2023-03-04T06:10:08.034Z,100.00
2023-03-04T06:12:36.373Z,100.00
2023-03-04T06:15:06.249Z,100.00
2023-03-04T06:17:34.648Z,100.00
2023-03-04T06:20:03.020Z,100.00
2023-03-04T06:22:31.293Z,100.00
2023-03-04T06:25:01.074Z,100.00
2023-03-04T06:27:29.356Z,100.00
2023-03-04T06:29:57.756Z,100.00
2023-03-04T06:32:29.334Z,100.00
2023-03-04T06:34:57.804Z,100.00
2023-03-04T06:37:26.313Z,100.00
2023-03-04T06:39:55.017Z,100.00
2023-03-04T06:42:24.694Z,100.00
2023-03-04T06:44:52.955Z,100.00
2023-03-04T06:47:21.338Z,100.00
2023-03-04T06:49:49.602Z,100.00
2023-03-04T06:52:17.949Z,100.00
2023-03-04T06:54:46.292Z,100.00
2023-03-04T06:57:14.847Z,100.00
2023-03-04T06:59:44.544Z,100.00
2023-03-04T07:02:13.665Z,100.00
2023-03-04T07:04:42.224Z,100.00
2023-03-04T07:07:10.612Z,100.00
2023-03-04T07:09:39.054Z,100.00
2023-03-04T07:12:07.584Z,100.00
2023-03-04T07:14:36.113Z,100.00
2023-03-04T07:17:06.004Z,100.00
2023-03-04T07:19:34.517Z,100.00
2023-03-04T07:22:03.271Z,100.00
2023-03-04T07:24:32.470Z,100.00
2023-03-04T07:27:01.102Z,100.00
2023-03-04T07:29:29.404Z,100.00
2023-03-04T07:31:57.858Z,100.00
2023-03-04T07:34:27.606Z,100.00
2023-03-04T07:36:59.081Z,100.00
2023-03-04T07:39:27.514Z,100.00
2023-03-04T07:41:55.792Z,100.00
2023-03-04T07:44:24.394Z,100.00
2023-03-04T07:46:52.725Z,100.00
2023-03-04T07:49:21.355Z,100.00
2023-03-04T07:51:51.119Z,100.00
2023-03-04T07:54:20.379Z,100.00
2023-03-04T07:56:51.522Z,100.00
2023-03-04T07:59:19.798Z,100.00
2023-03-04T08:01:48.150Z,100.00
2023-03-04T08:04:16.558Z,100.00
2023-03-04T08:06:45.040Z,100.00
2023-03-04T08:09:14.851Z,100.00
2023-03-04T08:11:43.623Z,100.00
2023-03-04T08:14:12.967Z,100.00
2023-03-04T08:16:41.711Z,100.00
2023-03-04T08:19:10.698Z,100.00
2023-03-04T08:21:39.092Z,100.00
2023-03-04T08:24:09.379Z,100.00
2023-03-04T08:26:42.126Z,100.00
2023-03-04T08:29:12.591Z,100.00
2023-03-04T08:31:41.182Z,100.00
2023-03-04T08:34:10.714Z,100.00
2023-03-04T08:36:38.990Z,100.00
2023-03-04T08:39:07.521Z,100.00
2023-03-04T08:41:36.646Z,100.00
2023-03-04T08:44:08.376Z,100.00
2023-03-04T08:46:36.658Z,100.00
2023-03-04T08:49:05.008Z,100.00
2023-03-04T08:51:33.333Z,100.00
2023-03-04T08:54:01.610Z,100.00
2023-03-04T08:56:29.937Z,100.00
2023-03-04T08:58:58.407Z,100.00
2023-03-04T09:01:28.420Z,100.00
2023-03-04T09:03:56.773Z,100.00
2023-03-04T09:06:25.228Z,100.00
2023-03-04T09:08:53.458Z,100.00
2023-03-04T09:11:21.838Z,100.00
2023-03-04T09:13:51.415Z,100.00
2023-03-04T09:16:19.798Z,100.00
2023-03-04T09:18:49.732Z,100.00
2023-03-04T09:21:18.232Z,100.00
2023-03-04T09:23:46.489Z,100.00
2023-03-04T09:26:16.888Z,100.00
2023-03-04T09:28:45.291Z,100.00
2023-03-04T09:31:14.505Z,99.21
2023-03-04T09:33:43.471Z,100.00
2023-03-04T09:36:14.749Z,99.98
2023-03-04T09:38:43.708Z,100.00
2023-03-04T09:41:18.455Z,97.62
2023-03-04T09:43:48.023Z,100.00
2023-03-04T09:46:20.452Z,96.44
2023-03-04T09:48:51.461Z,92.50
2023-03-04T09:51:24.273Z,90.17
2023-03-04T09:54:06.873Z,91.88
2023-03-04T09:56:36.554Z,92.28
2023-03-04T09:59:16.569Z,92.73
2023-03-04T10:01:50.982Z,93.02
2023-03-04T10:04:26.945Z,94.23
2023-03-04T10:06:57.507Z,91.98
2023-03-04T10:09:29.825Z,91.41
2023-03-04T10:12:04.282Z,91.29
2023-03-04T10:14:38.878Z,91.88
2023-03-04T10:17:16.883Z,84.83
2023-03-04T10:19:58.236Z,80.40
2023-03-04T10:22:34.526Z,79.65
2023-03-04T10:25:17.503Z,83.05
2023-03-04T10:27:51.651Z,83.64
2023-03-04T10:30:31.713Z,82.97
2023-03-04T10:33:00.122Z,82.09
2023-03-04T10:35:38.020Z,84.48
2023-03-04T10:38:08.950Z,83.83
2023-03-04T10:40:40.416Z,81.61
2023-03-04T10:43:16.704Z,82.52
2023-03-04T10:45:45.710Z,83.38
2023-03-04T10:48:22.754Z,84.28
2023-03-04T10:50:51.283Z,86.64
2023-03-04T10:53:33.632Z,86.30
2023-03-04T10:56:03.027Z,84.41
2023-03-04T10:58:31.688Z,83.40
2023-03-04T11:01:05.901Z,84.22
2023-03-04T11:03:37.050Z,83.60
2023-03-04T11:06:07.870Z,85.93
2023-03-04T11:08:37.603Z,87.27
2023-03-04T11:11:22.473Z,87.35
2023-03-04T11:13:57.997Z,89.51
2023-03-04T11:16:29.022Z,91.80
2023-03-04T11:19:01.794Z,89.56
2023-03-04T11:21:33.009Z,90.23
2023-03-04T11:24:05.047Z,88.66
2023-03-04T11:26:40.804Z,88.16
2023-03-04T11:29:15.644Z,91.51
2023-03-04T11:31:51.071Z,88.33
2023-03-04T11:34:35.733Z,88.97
2023-03-04T11:37:07.898Z,86.53
2023-03-04T11:39:39.848Z,89.48
2023-03-04T11:42:18.599Z,90.35
2023-03-04T11:44:47.013Z,88.76
2023-03-04T11:47:29.259Z,87.61
2023-03-04T11:50:39.295Z,82.31
2023-03-04T11:53:35.304Z,87.04
2023-03-04T11:56:23.006Z,89.24
2023-03-04T11:59:25.464Z,85.76
2023-03-04T12:02:05.537Z,83.35
2023-03-04T12:04:52.491Z,82.06
2023-03-04T12:07:39.286Z,85.44
2023-03-04T12:10:21.881Z,85.41
2023-03-04T12:13:19.341Z,84.49
2023-03-04T12:15:56.743Z,84.73
2023-03-04T12:18:42.063Z,85.10
2023-03-04T12:21:21.107Z,86.25
2023-03-04T12:24:21.391Z,89.36
2023-03-04T12:26:54.993Z,89.03
2023-03-04T12:29:35.568Z,88.13
2023-03-04T12:32:12.952Z,87.79
2023-03-04T12:34:56.290Z,85.22
2023-03-04T12:37:47.712Z,85.48
2023-03-04T12:40:37.545Z,86.51
2023-03-04T12:43:36.250Z,86.53
2023-03-04T12:46:20.007Z,88.93
2023-03-04T12:48:58.266Z,90.31
2023-03-04T12:51:34.091Z,87.59
2023-03-04T12:54:19.357Z,86.97
2023-03-04T12:56:53.376Z,86.63
2023-03-04T12:59:25.082Z,87.40
2023-03-04T13:02:07.225Z,86.44
2023-03-04T13:04:51.224Z,89.96
2023-03-04T13:07:29.362Z,92.41
2023-03-04T13:10:02.767Z,94.95
2023-03-04T13:12:48.678Z,94.01
2023-03-04T13:15:31.020Z,90.52
2023-03-04T13:18:02.902Z,91.17
2023-03-04T13:20:38.439Z,90.08
2023-03-04T13:23:27.220Z,89.98
2023-03-04T13:26:33.106Z,93.23
2023-03-04T13:29:35.188Z,92.22
2023-03-04T13:32:05.543Z,94.12
2023-03-04T13:34:46.742Z,91.96
2023-03-04T13:37:34.044Z,89.63
2023-03-04T13:40:36.920Z,91.64
2023-03-04T13:43:27.277Z,89.29
2023-03-04T13:45:56.548Z,87.37
2023-03-04T13:48:36.602Z,87.71
2023-03-04T13:51:28.645Z,87.84
2023-03-04T13:54:08.180Z,84.84
2023-03-04T13:56:38.050Z,85.42
2023-03-04T13:59:29.738Z,82.93
2023-03-04T14:02:04.056Z,81.71
2023-03-04T14:04:35.615Z,82.56
2023-03-04T14:07:20.843Z,84.57
2023-03-04T14:09:57.239Z,84.22
2023-03-04T14:12:27.659Z,83.59
2023-03-04T14:14:58.625Z,82.63
2023-03-04T14:17:29.892Z,83.45
2023-03-04T14:19:58.530Z,82.79
2023-03-04T14:22:30.974Z,82.93
2023-03-04T14:25:02.072Z,81.31
2023-03-04T14:27:33.211Z,82.75
2023-03-04T14:30:03.541Z,84.25
2023-03-04T14:32:32.491Z,83.92
2023-03-04T14:35:04.816Z,82.81
2023-03-04T14:37:43.760Z,80.94
2023-03-04T14:40:21.350Z,81.12
2023-03-04T14:42:50.745Z,80.89
2023-03-04T14:45:19.954Z,83.08
2023-03-04T14:47:49.254Z,82.85
2023-03-04T14:50:19.760Z,85.85
2023-03-04T14:52:52.202Z,85.17
2023-03-04T14:55:24.853Z,86.40
2023-03-04T14:57:58.633Z,88.10
2023-03-04T15:00:32.974Z,88.20
2023-03-04T15:03:03.482Z,96.12
2023-03-04T15:05:34.732Z,100.00
2023-03-04T15:08:07.077Z,100.00
2023-03-04T15:10:38.026Z,100.00
2023-03-04T15:13:08.436Z,100.00
2023-03-04T15:15:41.030Z,100.00
2023-03-04T15:18:26.251Z,100.00
2023-03-04T15:20:56.475Z,100.00
2023-03-04T15:23:27.181Z,100.00
2023-03-04T15:25:57.305Z,100.00
2023-03-04T15:28:26.844Z,100.00
2023-03-04T15:30:56.455Z,100.00
2023-03-04T15:33:25.907Z,100.00
2023-03-04T15:35:58.161Z,100.00
2023-03-04T15:38:28.498Z,100.00
2023-03-04T15:40:58.531Z,100.00
2023-03-04T15:43:26.986Z,100.00
2023-03-04T15:45:55.322Z,100.00
2023-03-04T15:48:24.020Z,100.00
2023-03-04T15:50:58.946Z,100.00
2023-03-04T15:53:34.263Z,100.00
2023-03-04T15:56:03.534Z,100.00
2023-03-04T15:58:35.157Z,100.00
2023-03-04T16:01:03.932Z,100.00
2023-03-04T16:03:32.517Z,100.00
2023-03-04T16:06:00.906Z,100.00
2023-03-04T16:08:30.679Z,100.00
2023-03-04T16:10:58.950Z,100.00
2023-03-04T16:13:27.218Z,100.00
2023-03-04T16:15:55.705Z,100.00
2023-03-04T16:18:24.297Z,100.00
2023-03-04T16:20:53.227Z,100.00
2023-03-04T16:23:24.521Z,100.00
2023-03-04T16:25:59.742Z,100.00
2023-03-04T16:28:28.105Z,100.00
2023-03-04T16:30:56.416Z,100.00
2023-03-04T16:33:24.791Z,100.00
2023-03-04T16:35:53.241Z,100.00
2023-03-04T16:38:28.253Z,100.00
2023-03-04T16:40:59.263Z,100.00
2023-03-04T16:43:27.546Z,100.00
2023-03-04T16:45:56.230Z,100.00
2023-03-04T16:48:24.519Z,100.00
2023-03-04T16:50:52.760Z,100.00
2023-03-04T16:53:30.506Z,100.00
2023-03-04T16:56:05.347Z,100.00
2023-03-04T16:58:33.764Z,100.00
2023-03-04T17:01:02.534Z,100.00
2023-03-04T17:03:31.371Z,100.00
2023-03-04T17:05:59.858Z,100.00
2023-03-04T17:08:28.150Z,100.00
2023-03-04T17:10:56.472Z,100.00
2023-03-04T17:13:26.205Z,100.00
2023-03-04T17:15:54.495Z,100.00
2023-03-04T17:18:22.752Z,100.00
2023-03-04T17:20:51.048Z,100.00
2023-03-04T17:23:19.320Z,100.00
2023-03-04T17:25:47.654Z,100.00
2023-03-04T17:28:16.082Z,100.00
2023-03-04T17:30:45.783Z,100.00
2023-03-04T17:33:14.071Z,100.00
2023-03-04T17:35:42.391Z,100.00
2023-03-04T17:38:10.651Z,100.00
2023-03-04T17:40:38.944Z,100.00
2023-03-04T17:43:11.600Z,100.00
2023-03-04T17:45:40.092Z,100.00
2023-03-04T17:48:15.090Z,100.00
2023-03-04T17:50:50.055Z,100.00
2023-03-04T17:53:18.841Z,100.00
2023-03-04T17:55:51.454Z,100.00
2023-03-04T17:58:20.537Z,100.00
2023-03-04T18:00:49.702Z,100.00
2023-03-04T18:03:19.684Z,100.00
2023-03-04T18:05:48.069Z,100.00
2023-03-04T18:08:16.402Z,100.00
2023-03-04T18:10:44.997Z,100.00
2023-03-04T18:13:13.375Z,100.00
2023-03-04T18:15:41.817Z,100.00
2023-03-04T18:18:10.124Z,100.00
2023-03-04T18:20:39.791Z,100.00
2023-03-04T18:23:08.256Z,100.00
2023-03-04T18:25:37.000Z,100.00
2023-03-04T18:28:05.760Z,100.00
2023-03-04T18:30:34.137Z,100.00
2023-03-04T18:33:02.999Z,100.00
2023-03-04T18:35:37.507Z,100.00
2023-03-04T18:38:07.335Z,100.00
2023-03-04T18:40:35.708Z,100.00
2023-03-04T18:43:04.752Z,100.00
2023-03-04T18:45:33.781Z,100.00
2023-03-04T18:48:02.135Z,100.00
2023-03-04T18:50:31.970Z,100.00
2023-03-04T18:53:16.065Z,100.00
2023-03-04T18:55:44.858Z,100.00
2023-03-04T18:58:26.340Z,100.00
2023-03-04T19:00:56.789Z,100.00
2023-03-04T19:03:26.210Z,100.00
2023-03-04T19:05:57.272Z,100.00
2023-03-04T19:08:32.320Z,100.00
2023-03-04T19:11:00.842Z,100.00
2023-03-04T19:13:30.703Z,100.00
2023-03-04T19:15:59.100Z,100.00
2023-03-04T19:18:29.063Z,100.00
2023-03-04T19:21:00.124Z,100.00
2023-03-04T19:23:30.624Z,100.00
2023-03-04T19:25:58.986Z,100.00
2023-03-04T19:28:27.651Z,100.00
2023-03-04T19:30:59.415Z,100.00
2023-03-04T19:33:27.844Z,100.00
2023-03-04T19:35:56.607Z,100.00
2023-03-04T19:38:25.105Z,100.00
2023-03-04T19:40:54.784Z,100.00
2023-03-04T19:43:23.280Z,100.00
2023-03-04T19:45:55.803Z,100.00
2023-03-04T19:48:24.574Z,100.00
2023-03-04T19:50:52.896Z,100.00
2023-03-04T19:53:21.406Z,100.00
2023-03-04T19:55:50.639Z,100.00
2023-03-04T19:58:20.793Z,100.00
2023-03-04T20:00:50.272Z,100.00
2023-03-04T20:03:18.671Z,100.00
2023-03-04T20:05:47.672Z,100.00
2023-03-04T20:08:16.000Z,100.00
2023-03-04T20:10:44.347Z,100.00
2023-03-04T20:13:12.642Z,100.00
2023-03-04T20:15:45.182Z,100.00
2023-03-04T20:18:13.525Z,100.00
2023-03-04T20:20:41.844Z,100.00
2023-03-04T20:23:10.613Z,100.00
2023-03-04T20:25:39.544Z,100.00
2023-03-04T20:28:10.534Z,100.00
2023-03-04T20:30:39.415Z,100.00
2023-03-04T20:33:09.114Z,100.00
2023-03-04T20:35:40.135Z,100.00
2023-03-04T20:38:08.585Z,100.00
2023-03-04T20:40:37.688Z,100.00
2023-03-04T20:43:07.001Z,100.00
2023-03-04T20:45:36.389Z,100.00
2023-03-04T20:48:05.547Z,100.00
2023-03-04T20:50:35.286Z,100.00
2023-03-04T20:53:03.849Z,100.00
2023-03-04T20:55:32.076Z,100.00
2023-03-04T20:58:00.442Z,100.00
2023-03-04T21:00:30.722Z,100.00
2023-03-04T21:02:59.095Z,100.00
2023-03-04T21:05:27.335Z,100.00
2023-03-04T21:07:57.188Z,100.00
2023-03-04T21:10:25.432Z,100.00
2023-03-04T21:12:53.756Z,100.00
2023-03-04T21:15:22.917Z,100.00
2023-03-04T21:17:51.234Z,100.00
2023-03-04T21:20:19.601Z,100.00
2023-03-04T21:22:47.914Z,100.00
2023-03-04T21:25:19.208Z,100.00
2023-03-04T21:27:47.434Z,100.00
2023-03-04T21:30:15.967Z,100.00
2023-03-04T21:32:44.336Z,100.00
2023-03-04T21:35:15.327Z,100.00
2023-03-04T21:37:43.542Z,100.00
2023-03-04T21:40:13.484Z,100.00
2023-03-04T21:42:43.201Z,100.00
2023-03-04T21:45:12.210Z,100.00
2023-03-04T21:47:40.896Z,100.00
2023-03-04T21:50:10.234Z,100.00
2023-03-04T21:52:40.988Z,100.00
2023-03-04T21:55:10.066Z,100.00
2023-03-04T21:57:38.319Z,100.00
2023-03-04T22:00:09.692Z,100.00
2023-03-04T22:02:38.235Z,100.00
2023-03-04T22:05:07.023Z,100.00
2023-03-04T22:07:36.237Z,100.00
2023-03-04T22:10:07.523Z,100.00
2023-03-04T22:12:35.782Z,100.00
2023-03-04T22:15:04.194Z,100.00
2023-03-04T22:17:35.285Z,100.00
2023-03-04T22:20:03.816Z,100.00
2023-03-04T22:22:32.178Z,100.00
2023-03-04T22:25:00.703Z,100.00
2023-03-04T22:27:29.069Z,100.00
2023-03-04T22:29:57.827Z,100.00
2023-03-04T22:32:26.328Z,100.00
2023-03-04T22:34:56.075Z,100.00
2023-03-04T22:37:24.369Z,100.00
2023-03-04T22:39:52.767Z,100.00
2023-03-04T22:42:21.106Z,100.00
2023-03-04T22:44:49.481Z,100.00
2023-03-04T22:47:17.821Z,100.00
2023-03-04T22:49:47.604Z,100.00
2023-03-04T22:52:17.326Z,100.00
2023-03-04T22:54:45.694Z,100.00
2023-03-04T22:57:13.941Z,100.00
2023-03-04T22:59:42.229Z,100.00
2023-03-04T23:02:10.632Z,100.00
2023-03-04T23:04:38.884Z,100.00
2023-03-04T23:07:07.170Z,100.00
2023-03-04T23:09:36.926Z,100.00
2023-03-04T23:12:05.775Z,100.00
2023-03-04T23:14:34.119Z,100.00
2023-03-04T23:17:02.671Z,100.00
2023-03-04T23:19:30.972Z,100.00
2023-03-04T23:21:59.389Z,100.00
2023-03-04T23:24:28.253Z,100.00
2023-03-04T23:26:57.970Z,100.00
2023-03-04T23:29:26.256Z,100.00
2023-03-04T23:31:54.602Z,100.00
2023-03-04T23:34:23.070Z,100.00
2023-03-04T23:36:51.360Z,100.00
2023-03-04T23:39:20.147Z,100.00
2023-03-04T23:41:48.500Z,100.00
2023-03-04T23:44:18.194Z,100.00
2023-03-04T23:46:46.610Z,100.00
2023-03-04T23:49:17.195Z,100.00
2023-03-04T23:51:45.794Z,100.00
2023-03-04T23:54:14.912Z,100.00
2023-03-04T23:56:43.269Z,100.00
2023-03-04T23:59:12.416Z,100.00
